createdAt,value
2022-10-09T00:00:07.309Z,102514.53
2022-10-09T00:02:33.745Z,102499.16
2022-10-09T00:04:55.573Z,102506.56
2022-10-09T00:07:17.520Z,102502.16
2022-10-09T00:09:39.516Z,102507.13
2022-10-09T00:12:01.335Z,102504.66
2022-10-09T00:14:23.105Z,102509.59
2022-10-09T00:16:44.919Z,102506.84
2022-10-09T00:19:06.682Z,102511.53
2022-10-09T00:21:33.063Z,102515.34
2022-10-09T00:23:59.384Z,102509.03
2022-10-09T00:26:21.476Z,102512.91
2022-10-09T00:28:43.768Z,102508.50
2022-10-09T00:31:10.770Z,102502.47
2022-10-09T00:33:34.223Z,102502.75
2022-10-09T00:35:55.967Z,102507.97
2022-10-09T00:38:17.776Z,102507.94
2022-10-09T00:40:39.732Z,102507.69
2022-10-09T00:43:01.631Z,102511.81
2022-10-09T00:45:23.528Z,102505.22
2022-10-09T00:47:52.757Z,102511.25
2022-10-09T00:50:27.321Z,102505.47
2022-10-09T00:52:59.079Z,102502.72
2022-10-09T00:55:23.826Z,102503.84
2022-10-09T00:57:46.515Z,102504.38
2022-10-09T01:00:13.327Z,102510.94
2022-10-09T01:02:35.575Z,102500.78
2022-10-09T01:04:57.409Z,102512.31
2022-10-09T01:07:59.130Z,102508.47
2022-10-09T01:10:55.542Z,102510.63
2022-10-09T01:13:17.219Z,102509.81
2022-10-09T01:15:55.567Z,102504.06
2022-10-09T01:18:38.248Z,102505.38
2022-10-09T01:21:11.499Z,102495.78
2022-10-09T01:24:13.388Z,102496.06
2022-10-09T01:26:57.229Z,102498.81
2022-10-09T01:29:22.858Z,102489.22
2022-10-09T01:31:49.849Z,102484.53
2022-10-09T01:34:14.816Z,102486.97
2022-10-09T01:36:39.716Z,102486.97
2022-10-09T01:39:06.706Z,102488.09
2022-10-09T01:41:29.716Z,102482.91
2022-10-09T01:43:51.481Z,102478.25
2022-10-09T01:46:32.981Z,102482.06
2022-10-09T01:49:05.590Z,102483.19
2022-10-09T01:51:49.211Z,102481.25
2022-10-09T01:54:19.892Z,102488.09
2022-10-09T01:56:47.982Z,102476.88
2022-10-09T01:59:17.132Z,102473.81
2022-10-09T02:01:42.230Z,102469.97
2022-10-09T02:04:10.068Z,102470.25
2022-10-09T02:06:33.211Z,102455.16
2022-10-09T02:08:56.234Z,102462.84
2022-10-09T02:11:18.556Z,102454.06
2022-10-09T02:13:42.126Z,102454.59
2022-10-09T02:16:46.819Z,102459.28
2022-10-09T02:19:34.655Z,102460.63
2022-10-09T02:22:15.180Z,102457.88
2022-10-09T02:24:40.968Z,102452.09
2022-10-09T02:27:03.262Z,102458.94
2022-10-09T02:29:25.709Z,102455.66
2022-10-09T02:31:47.669Z,102453.19
2022-10-09T02:34:17.692Z,102460.56
2022-10-09T02:36:40.593Z,102456.44
2022-10-09T02:39:03.998Z,102450.16
2022-10-09T02:41:26.418Z,102449.34
2022-10-09T02:43:48.867Z,102447.66
2022-10-09T02:46:10.694Z,102454.00
2022-10-09T02:48:32.508Z,102452.06
2022-10-09T02:50:54.268Z,102451.81
2022-10-09T02:53:16.358Z,102455.63
2022-10-09T02:55:38.176Z,102451.25
2022-10-09T02:57:59.971Z,102453.69
2022-10-09T03:00:21.949Z,102448.75
2022-10-09T03:02:43.820Z,102447.38
2022-10-09T03:05:06.397Z,102441.59
2022-10-09T03:07:28.112Z,102444.63
2022-10-09T03:09:50.015Z,102444.88
2022-10-09T03:12:11.844Z,102443.25
2022-10-09T03:14:35.115Z,102442.41
2022-10-09T03:16:57.572Z,102438.84
2022-10-09T03:19:19.315Z,102441.84
2022-10-09T03:21:41.090Z,102441.28
2022-10-09T03:24:03.092Z,102438.81
2022-10-09T03:26:27.963Z,102433.34
2022-10-09T03:28:52.451Z,102435.50
2022-10-09T03:31:33.384Z,102427.28
2022-10-09T03:34:00.079Z,102431.66
2022-10-09T03:36:21.823Z,102429.72
2022-10-09T03:38:43.649Z,102421.19
2022-10-09T03:41:07.225Z,102428.31
2022-10-09T03:43:29.096Z,102423.63
2022-10-09T03:45:51.155Z,102427.16
2022-10-09T03:48:14.199Z,102424.09
2022-10-09T03:50:38.143Z,102426.03
2022-10-09T03:53:00.124Z,102430.69
2022-10-09T03:55:21.943Z,102432.31
2022-10-09T03:57:43.762Z,102432.88
2022-10-09T04:00:07.753Z,102435.91
2022-10-09T04:02:31.245Z,102439.72
2022-10-09T04:04:53.062Z,102435.84
2022-10-09T04:07:14.856Z,102430.09
2022-10-09T04:09:36.604Z,102428.72
2022-10-09T04:11:58.392Z,102436.34
2022-10-09T04:14:20.465Z,102433.63
2022-10-09T04:16:42.362Z,102441.00
2022-10-09T04:19:04.214Z,102433.63
2022-10-09T04:21:26.056Z,102431.97
2022-10-09T04:23:47.811Z,102442.06
2022-10-09T04:26:12.869Z,102431.13
2022-10-09T04:28:34.721Z,102433.88
2022-10-09T04:30:57.767Z,102437.13
2022-10-09T04:33:20.147Z,102435.50
2022-10-09T04:35:44.363Z,102441.22
2022-10-09T04:38:06.169Z,102431.06
2022-10-09T04:40:27.908Z,102436.53
2022-10-09T04:42:49.966Z,102438.22
2022-10-09T04:45:12.277Z,102445.88
2022-10-09T04:47:35.408Z,102436.84
2022-10-09T04:49:57.472Z,102423.16
2022-10-09T04:52:19.255Z,102433.31
2022-10-09T04:54:41.015Z,102428.06
2022-10-09T04:57:02.799Z,102433.81
2022-10-09T04:59:24.546Z,102429.94
2022-10-09T05:01:46.470Z,102433.72
2022-10-09T05:04:08.893Z,102432.34
2022-10-09T05:06:30.643Z,102423.34
2022-10-09T05:08:54.842Z,102428.22
2022-10-09T05:11:22.001Z,102427.94
2022-10-09T05:13:48.370Z,102432.84
2022-10-09T05:16:15.076Z,102421.59
2022-10-09T05:18:43.165Z,102421.31
2022-10-09T05:21:05.877Z,102421.56
2022-10-09T05:23:27.633Z,102418.25
2022-10-09T05:26:04.149Z,102410.06
2022-10-09T05:28:26.532Z,102414.41
2022-10-09T05:30:48.636Z,102422.03
2022-10-09T05:33:10.371Z,102419.56
2022-10-09T05:35:32.179Z,102417.34
2022-10-09T05:37:53.955Z,102421.44
2022-10-09T05:40:15.782Z,102421.13
2022-10-09T05:42:37.545Z,102425.75
2022-10-09T05:44:59.326Z,102424.94
2022-10-09T05:47:21.045Z,102421.66
2022-10-09T05:49:42.947Z,102420.81
2022-10-09T05:52:04.762Z,102417.53
2022-10-09T05:54:27.407Z,102420.50
2022-10-09T05:56:49.187Z,102413.13
2022-10-09T05:59:15.154Z,102415.28
2022-10-09T06:01:43.889Z,102412.25
2022-10-09T06:04:09.840Z,102408.47
2022-10-09T06:06:35.902Z,102410.09
2022-10-09T06:08:58.895Z,102414.22
2022-10-09T06:11:28.676Z,102405.78
2022-10-09T06:13:51.623Z,102412.63
2022-10-09T06:16:17.069Z,102412.38
2022-10-09T06:18:42.235Z,102412.66
2022-10-09T06:21:06.635Z,102418.19
2022-10-09T06:23:29.558Z,102422.63
2022-10-09T06:25:57.613Z,102422.66
2022-10-09T06:28:20.114Z,102421.59
2022-10-09T06:30:41.911Z,102417.25
2022-10-09T06:33:03.838Z,102415.38
2022-10-09T06:35:25.586Z,102409.94
2022-10-09T06:37:47.366Z,102417.41
2022-10-09T06:40:09.727Z,102421.84
2022-10-09T06:42:31.591Z,102418.72
2022-10-09T06:44:53.356Z,102415.59
2022-10-09T06:47:15.179Z,102420.34
2022-10-09T06:49:37.025Z,102416.25
2022-10-09T06:51:58.799Z,102423.66
2022-10-09T06:54:20.563Z,102415.69
2022-10-09T06:56:42.757Z,102426.13
2022-10-09T06:59:07.545Z,102422.31
2022-10-09T07:01:32.248Z,102423.13
2022-10-09T07:03:58.052Z,102418.75
2022-10-09T07:06:24.303Z,102415.22
2022-10-09T07:08:51.323Z,102419.31
2022-10-09T07:11:24.217Z,102416.88
2022-10-09T07:13:46.044Z,102422.34
2022-10-09T07:16:08.478Z,102415.19
2022-10-09T07:18:33.953Z,102414.06
2022-10-09T07:20:56.193Z,102414.03
2022-10-09T07:23:18.020Z,102417.84
2022-10-09T07:25:39.771Z,102422.78
2022-10-09T07:28:01.533Z,102418.59
2022-10-09T07:30:23.289Z,102412.47
2022-10-09T07:32:45.048Z,102420.13
2022-10-09T07:35:07.440Z,102418.38
2022-10-09T07:37:29.243Z,102419.38
2022-10-09T07:39:50.989Z,102411.88
2022-10-09T07:42:12.814Z,102408.25
2022-10-09T07:44:34.709Z,102416.69
2022-10-09T07:46:56.580Z,102415.50
2022-10-09T07:49:19.020Z,102415.41
2022-10-09T07:51:40.807Z,102412.56
2022-10-09T07:54:03.204Z,102417.69
2022-10-09T07:56:29.329Z,102415.66
2022-10-09T07:58:58.102Z,102414.47
2022-10-09T08:01:21.964Z,102413.03
2022-10-09T08:03:44.111Z,102408.28
2022-10-09T08:06:06.535Z,102408.97
2022-10-09T08:08:29.530Z,102406.91
2022-10-09T08:10:51.377Z,102406.47
2022-10-09T08:13:13.307Z,102399.44
2022-10-09T08:15:42.585Z,102402.88
2022-10-09T08:18:04.526Z,102392.28
2022-10-09T08:20:26.323Z,102398.47
2022-10-09T08:22:48.422Z,102390.88
2022-10-09T08:25:10.361Z,102389.38
2022-10-09T08:27:32.265Z,102390.03
2022-10-09T08:29:54.173Z,102380.25
2022-10-09T08:32:15.962Z,102380.91
2022-10-09T08:34:37.730Z,102379.63
2022-10-09T08:36:59.542Z,102381.38
2022-10-09T08:39:21.367Z,102373.19
2022-10-09T08:41:54.925Z,102380.50
2022-10-09T08:44:28.642Z,102369.78
2022-10-09T08:47:23.841Z,102378.91
2022-10-09T08:50:06.000Z,102371.44
2022-10-09T08:53:07.691Z,102359.53
2022-10-09T08:55:41.514Z,102360.16
2022-10-09T08:58:06.466Z,102361.53
2022-10-09T09:00:53.978Z,102361.81
2022-10-09T09:03:39.831Z,102353.63
2022-10-09T09:06:11.713Z,102357.59
2022-10-09T09:09:08.232Z,102357.22
2022-10-09T09:11:54.453Z,102351.94
2022-10-09T09:14:36.868Z,102342.59
2022-10-09T09:17:26.072Z,102335.03
2022-10-09T09:20:31.144Z,102338.88
2022-10-09T09:22:55.409Z,102337.94
2022-10-09T09:25:33.552Z,102341.13
2022-10-09T09:28:12.476Z,102337.44
2022-10-09T09:30:43.025Z,102332.41
2022-10-09T09:33:10.915Z,102319.88
2022-10-09T09:35:49.482Z,102320.72
2022-10-09T09:38:11.286Z,102319.31
2022-10-09T09:40:37.266Z,102306.78
2022-10-09T09:43:04.946Z,102300.91
2022-10-09T09:45:28.567Z,102300.56
2022-10-09T09:48:01.979Z,102301.22
2022-10-09T09:50:56.435Z,102303.84
2022-10-09T09:53:35.913Z,102285.53
2022-10-09T09:55:58.258Z,102282.56
2022-10-09T09:58:22.202Z,102287.28
2022-10-09T10:00:58.708Z,102278.44
2022-10-09T10:03:21.339Z,102276.28
2022-10-09T10:05:45.399Z,102266.78
2022-10-09T10:08:24.745Z,102268.38
2022-10-09T10:10:48.037Z,102263.50
2022-10-09T10:13:19.332Z,102259.69
2022-10-09T10:15:51.308Z,102262.78
2022-10-09T10:18:17.031Z,102255.41
2022-10-09T10:20:54.288Z,102255.38
2022-10-09T10:23:35.688Z,102259.72
2022-10-09T10:26:00.491Z,102243.78
2022-10-09T10:28:30.798Z,102247.94
2022-10-09T10:30:56.557Z,102238.72
2022-10-09T10:33:29.363Z,102226.59
2022-10-09T10:35:56.232Z,102231.13
2022-10-09T10:38:26.961Z,102235.47
2022-10-09T10:41:34.771Z,102227.50
2022-10-09T10:44:13.935Z,102223.53
2022-10-09T10:46:55.392Z,102224.00
2022-10-09T10:49:22.089Z,102216.56
2022-10-09T10:52:08.086Z,102225.19
2022-10-09T10:54:57.881Z,102208.72
2022-10-09T10:57:48.517Z,102210.63
2022-10-09T11:00:12.895Z,102204.34
2022-10-09T11:03:11.514Z,102198.56
2022-10-09T11:05:49.107Z,102194.75
2022-10-09T11:08:41.730Z,102194.50
2022-10-09T11:11:20.096Z,102191.16
2022-10-09T11:14:04.983Z,102188.84
2022-10-09T11:16:38.213Z,102184.19
2022-10-09T11:19:45.388Z,102181.63
2022-10-09T11:22:10.547Z,102165.97
2022-10-09T11:24:54.077Z,102174.13
2022-10-09T11:28:03.457Z,102168.19
2022-10-09T11:30:30.318Z,102157.03
2022-10-09T11:33:17.867Z,102154.81
2022-10-09T11:36:04.952Z,102148.31
2022-10-09T11:38:58.145Z,102139.25
2022-10-09T11:41:20.715Z,102141.47
2022-10-09T11:44:19.639Z,102136.13
2022-10-09T11:47:01.965Z,102127.03
2022-10-09T11:49:37.583Z,102131.22
2022-10-09T11:52:15.596Z,102116.19
2022-10-09T11:54:37.686Z,102122.94
2022-10-09T11:57:06.210Z,102115.38
2022-10-09T11:59:42.215Z,102121.44
2022-10-09T12:02:33.939Z,102108.41
2022-10-09T12:04:56.862Z,102103.97
2022-10-09T12:10:21.302Z,102094.81
2022-10-09T12:12:43.153Z,102099.31
2022-10-09T12:15:27.718Z,102082.88
2022-10-09T12:17:50.102Z,102068.31
2022-10-09T12:20:24.759Z,102068.97
2022-10-09T12:23:21.844Z,102068.78
2022-10-09T12:25:45.827Z,102053.50
2022-10-09T12:28:27.957Z,102047.69
2022-10-09T12:30:52.058Z,102050.91
2022-10-09T12:33:36.801Z,102041.25
2022-10-09T12:36:26.021Z,102035.94
2022-10-09T12:38:48.293Z,102034.88
2022-10-09T12:41:26.466Z,102031.81
2022-10-09T12:43:55.470Z,102021.84
2022-10-09T12:46:34.913Z,102015.25
2022-10-09T12:48:58.443Z,102008.97
2022-10-09T12:51:28.151Z,102005.00
2022-10-09T12:53:52.262Z,102003.47
2022-10-09T12:56:21.728Z,101998.69
2022-10-09T12:58:43.904Z,101993.03
2022-10-09T13:01:13.757Z,101984.22
2022-10-09T13:03:40.445Z,101981.75
2022-10-09T13:06:26.275Z,101981.22
2022-10-09T13:09:04.455Z,101969.94
2022-10-09T13:11:40.584Z,101966.97
2022-10-09T13:14:02.704Z,101968.44
2022-10-09T13:16:25.855Z,101958.00
2022-10-09T13:19:00.161Z,101957.28
2022-10-09T13:21:36.813Z,101955.38
2022-10-09T13:24:10.432Z,101957.44
2022-10-09T13:26:32.217Z,101947.88
2022-10-09T13:28:56.906Z,101945.03
2022-10-09T13:31:19.329Z,101938.63
2022-10-09T13:33:41.277Z,101934.66
2022-10-09T13:36:03.389Z,101933.22
2022-10-09T13:38:25.195Z,101924.03
2022-10-09T13:40:47.727Z,101924.03
2022-10-09T13:43:20.468Z,101910.53
2022-10-09T13:45:42.601Z,101903.31
2022-10-09T13:48:04.397Z,101910.91
2022-10-09T13:50:26.165Z,101908.09
2022-10-09T13:52:47.930Z,101904.13
2022-10-09T13:55:10.613Z,101903.22
2022-10-09T13:57:32.461Z,101890.97
2022-10-09T13:59:54.193Z,101894.22
2022-10-09T14:02:15.940Z,101885.50
2022-10-09T14:04:37.782Z,101887.44
2022-10-09T14:06:59.570Z,101882.53
2022-10-09T14:09:21.861Z,101880.19
2022-10-09T14:11:43.708Z,101874.97
2022-10-09T14:14:05.547Z,101866.59
2022-10-09T14:16:29.260Z,101872.25
2022-10-09T14:18:51.882Z,101866.59
2022-10-09T14:21:15.895Z,101865.22
2022-10-09T14:23:38.164Z,101859.59
2022-10-09T14:26:04.601Z,101855.19
2022-10-09T14:28:26.481Z,101851.22
2022-10-09T14:30:48.346Z,101848.06
2022-10-09T14:33:10.703Z,101844.03
2022-10-09T14:35:32.476Z,101844.72
2022-10-09T14:37:54.313Z,101841.13
2022-10-09T14:40:16.757Z,101849.44
2022-10-09T14:42:39.591Z,101832.94
2022-10-09T14:45:01.346Z,101827.66
2022-10-09T14:47:23.203Z,101828.38
2022-10-09T14:49:45.027Z,101825.88
2022-10-09T14:52:06.856Z,101818.22
2022-10-09T14:54:28.718Z,101820.56
2022-10-09T14:56:50.539Z,101815.72
2022-10-09T14:59:12.789Z,101816.00
2022-10-09T15:01:35.558Z,101807.97
2022-10-09T15:04:00.312Z,101808.78
2022-10-09T15:06:25.781Z,101801.50
2022-10-09T15:08:47.657Z,101799.09
2022-10-09T15:11:11.840Z,101800.63
2022-10-09T15:13:35.082Z,101795.69
2022-10-09T15:16:02.223Z,101793.16
2022-10-09T15:18:24.006Z,101785.88
2022-10-09T15:20:46.982Z,101782.28
2022-10-09T15:23:08.865Z,101779.50
2022-10-09T15:25:33.446Z,101781.84
2022-10-09T15:27:55.492Z,101774.19
2022-10-09T15:30:17.478Z,101765.63
2022-10-09T15:32:39.270Z,101764.78
2022-10-09T15:35:01.111Z,101761.56
2022-10-09T15:37:22.932Z,101761.13
2022-10-09T15:39:44.776Z,101755.44
2022-10-09T15:42:06.589Z,101755.38
2022-10-09T15:44:28.455Z,101748.09
2022-10-09T15:46:50.320Z,101741.25
2022-10-09T15:49:12.452Z,101737.56
2022-10-09T15:51:34.983Z,101733.84
2022-10-09T15:54:00.631Z,101731.00
2022-10-09T15:56:24.970Z,101724.06
2022-10-09T15:58:47.075Z,101730.28
2022-10-09T16:01:12.659Z,101724.59
2022-10-09T16:03:37.229Z,101713.25
2022-10-09T16:06:02.255Z,101717.94
2022-10-09T16:08:24.029Z,101713.06
2022-10-09T16:10:51.897Z,101713.78
2022-10-09T16:13:14.008Z,101705.69
2022-10-09T16:15:41.082Z,101715.13
2022-10-09T16:18:02.832Z,101711.00
2022-10-09T16:20:25.158Z,101701.25
2022-10-09T16:22:47.482Z,101697.94
2022-10-09T16:25:09.847Z,101699.31
2022-10-09T16:27:31.695Z,101696.78
2022-10-09T16:29:53.579Z,101690.66
2022-10-09T16:32:16.222Z,101695.69
2022-10-09T16:34:37.947Z,101693.03
2022-10-09T16:37:02.166Z,101678.56
2022-10-09T16:39:24.016Z,101685.53
2022-10-09T16:41:45.835Z,101692.53
2022-10-09T16:44:13.952Z,101686.75
2022-10-09T16:46:35.822Z,101683.75
2022-10-09T16:48:59.631Z,101683.16
2022-10-09T16:51:29.484Z,101685.38
2022-10-09T16:53:53.858Z,101678.78
2022-10-09T16:56:20.004Z,101679.38
2022-10-09T16:58:43.598Z,101681.94
2022-10-09T17:01:09.797Z,101682.88
2022-10-09T17:03:32.385Z,101679.03
2022-10-09T17:05:54.139Z,101678.00
2022-10-09T17:08:16.289Z,101679.72
2022-10-09T17:10:42.223Z,101681.44
2022-10-09T17:13:04.014Z,101680.06
2022-10-09T17:15:25.801Z,101680.63
2022-10-09T17:17:48.256Z,101683.63
2022-10-09T17:20:10.748Z,101675.53
2022-10-09T17:22:32.519Z,101680.50
2022-10-09T17:24:54.287Z,101684.31
2022-10-09T17:27:16.274Z,101685.34
2022-10-09T17:29:38.088Z,101688.31
2022-10-09T17:31:59.936Z,101685.78
2022-10-09T17:34:22.064Z,101680.44
2022-10-09T17:36:45.196Z,101684.56
2022-10-09T17:39:12.266Z,101676.94
2022-10-09T17:41:35.131Z,101676.31
2022-10-09T17:43:57.459Z,101681.75
2022-10-09T17:46:20.594Z,101674.94
2022-10-09T17:48:46.434Z,101680.34
2022-10-09T17:51:08.204Z,101678.94
2022-10-09T17:53:31.228Z,101674.72
2022-10-09T17:55:56.063Z,101666.59
2022-10-09T17:58:19.750Z,101679.06
2022-10-09T18:00:42.087Z,101678.09
2022-10-09T18:03:04.528Z,101679.13
2022-10-09T18:05:26.416Z,101669.53
2022-10-09T18:07:48.536Z,101668.59
2022-10-09T18:10:10.642Z,101665.69
2022-10-09T18:12:32.404Z,101667.84
2022-10-09T18:14:54.150Z,101669.19
2022-10-09T18:17:15.972Z,101658.63
2022-10-09T18:19:38.868Z,101654.44
2022-10-09T18:22:00.724Z,101657.41
2022-10-09T18:24:22.503Z,101652.56
2022-10-09T18:26:45.083Z,101648.84
2022-10-09T18:29:07.837Z,101641.84
2022-10-09T18:31:30.043Z,101650.03
2022-10-09T18:33:52.819Z,101642.72
2022-10-09T18:36:22.926Z,101649.28
2022-10-09T18:38:49.693Z,101646.22
2022-10-09T18:41:11.782Z,101639.25
2022-10-09T18:43:33.601Z,101642.22
2022-10-09T18:45:56.167Z,101637.31
2022-10-09T18:48:18.358Z,101641.09
2022-10-09T18:50:40.554Z,101635.75
2022-10-09T18:53:02.434Z,101640.00
2022-10-09T18:55:24.448Z,101628.78
2022-10-09T18:57:47.361Z,101631.88
2022-10-09T19:00:10.173Z,101634.81
2022-10-09T19:02:31.962Z,101634.66
2022-10-09T19:04:54.702Z,101629.78
2022-10-09T19:07:16.619Z,101626.56
2022-10-09T19:09:38.491Z,101624.44
2022-10-09T19:12:00.304Z,101621.53
2022-10-09T19:14:22.202Z,101626.09
2022-10-09T19:16:44.313Z,101626.75
2022-10-09T19:19:06.447Z,101625.47
2022-10-09T19:21:28.474Z,101620.91
2022-10-09T19:23:53.148Z,101616.88
2022-10-09T19:26:15.651Z,101618.34
2022-10-09T19:28:38.623Z,101612.31
2022-10-09T19:31:02.578Z,101615.75
2022-10-09T19:33:24.558Z,101610.84
2022-10-09T19:35:53.099Z,101607.63
2022-10-09T19:38:16.233Z,101613.81
2022-10-09T19:40:38.178Z,101605.06
2022-10-09T19:42:59.958Z,101607.31
2022-10-09T19:45:21.725Z,101606.34
2022-10-09T19:47:43.497Z,101603.91
2022-10-09T19:50:05.655Z,101601.81
2022-10-09T19:52:27.435Z,101596.13
2022-10-09T19:54:49.288Z,101604.75
2022-10-09T19:57:11.149Z,101594.34
2022-10-09T19:59:33.131Z,101601.34
2022-10-09T20:01:57.554Z,101596.47
2022-10-09T20:04:19.611Z,101592.25
2022-10-09T20:06:43.210Z,101589.66
2022-10-09T20:09:07.479Z,101591.94
2022-10-09T20:11:29.393Z,101592.25
2022-10-09T20:13:55.706Z,101590.66
2022-10-09T20:16:19.014Z,101595.38
2022-10-09T20:18:42.934Z,101586.59
2022-10-09T20:21:05.180Z,101588.06
2022-10-09T20:23:27.150Z,101584.00
2022-10-09T20:25:57.888Z,101579.94
2022-10-09T20:28:19.713Z,101579.44
2022-10-09T20:30:55.158Z,101578.94
2022-10-09T20:33:16.899Z,101586.25
2022-10-09T20:35:43.591Z,101583.50
2022-10-09T20:38:05.533Z,101586.13
2022-10-09T20:40:27.524Z,101579.28
2022-10-09T20:42:49.541Z,101579.13
2022-10-09T20:45:11.423Z,101575.41
2022-10-09T20:47:33.368Z,101575.56
2022-10-09T20:49:55.164Z,101586.13
2022-10-09T20:52:16.917Z,101578.00
2022-10-09T20:54:38.738Z,101575.38
2022-10-09T20:57:00.855Z,101568.84
2022-10-09T20:59:22.838Z,101566.75
2022-10-09T21:01:45.471Z,101566.06
2022-10-09T21:04:07.478Z,101567.03
2022-10-09T21:06:30.224Z,101557.81
2022-10-09T21:08:52.161Z,101556.81
2022-10-09T21:11:17.257Z,101559.41
2022-10-09T21:13:40.043Z,101557.28
2022-10-09T21:16:09.340Z,101556.47
2022-10-09T21:18:31.166Z,101556.31
2022-10-09T21:20:52.958Z,101555.03
2022-10-09T21:23:17.904Z,101539.91
2022-10-09T21:25:51.552Z,101547.38
2022-10-09T21:28:13.447Z,101542.34
2022-10-09T21:30:41.503Z,101539.09
2022-10-09T21:33:03.771Z,101536.13
2022-10-09T21:35:25.540Z,101535.19
2022-10-09T21:37:47.647Z,101534.19
2022-10-09T21:40:09.819Z,101533.38
2022-10-09T21:42:31.771Z,101525.72
2022-10-09T21:44:53.536Z,101533.84
2022-10-09T21:47:21.147Z,101528.16
2022-10-09T21:49:42.927Z,101525.22
2022-10-09T21:52:04.804Z,101524.22
2022-10-09T21:54:26.680Z,101526.03
2022-10-09T21:56:48.837Z,101525.53
2022-10-09T21:59:10.801Z,101524.22
2022-10-09T22:01:32.768Z,101526.47
2022-10-09T22:03:54.588Z,101520.78
2022-10-09T22:06:19.265Z,101527.72
2022-10-09T22:08:42.455Z,101523.34
2022-10-09T22:11:08.900Z,101520.44
2022-10-09T22:13:30.734Z,101521.91
2022-10-09T22:15:52.551Z,101518.63
2022-10-09T22:18:15.015Z,101513.44
2022-10-09T22:20:47.134Z,101514.56
2022-10-09T22:23:09.242Z,101512.44
2022-10-09T22:25:31.100Z,101508.38
2022-10-09T22:27:52.880Z,101507.41
2022-10-09T22:30:15.079Z,101497.81
2022-10-09T22:32:36.963Z,101500.09
2022-10-09T22:34:59.236Z,101499.88
2022-10-09T22:37:20.995Z,101486.44
2022-10-09T22:39:42.813Z,101492.25
2022-10-09T22:42:04.683Z,101489.00
2022-10-09T22:44:26.515Z,101492.91
2022-10-09T22:46:50.924Z,101493.22
2022-10-09T22:49:15.920Z,101490.78
2022-10-09T22:51:37.807Z,101485.59
2022-10-09T22:54:00.604Z,101488.47
2022-10-09T22:56:25.951Z,101480.53
2022-10-09T22:58:49.281Z,101481.97
2022-10-09T23:01:18.609Z,101484.56
2022-10-09T23:03:40.477Z,101480.50
2022-10-09T23:06:18.666Z,101479.66
2022-10-09T23:08:44.016Z,101479.47
2022-10-09T23:11:07.387Z,101479.75
2022-10-09T23:13:29.145Z,101482.34
2022-10-09T23:15:50.947Z,101476.34
2022-10-09T23:18:12.838Z,101464.00
2022-10-09T23:20:37.419Z,101463.50
2022-10-09T23:22:59.106Z,101465.59
2022-10-09T23:25:20.902Z,101459.09
2022-10-09T23:27:42.699Z,101459.38
2022-10-09T23:30:05.037Z,101460.81
2022-10-09T23:32:26.857Z,101449.34
2022-10-09T23:34:48.589Z,101455.16
2022-10-09T23:37:10.621Z,101461.81
2022-10-09T23:39:32.595Z,101455.44
2022-10-09T23:41:54.444Z,101454.16
2022-10-09T23:44:21.226Z,101455.91
2022-10-09T23:46:43.857Z,101452.16
2022-10-09T23:49:05.838Z,101450.03
2022-10-09T23:51:28.453Z,101445.97
2022-10-09T23:53:51.016Z,101451.28
2022-10-09T23:56:24.495Z,101448.34
2022-10-09T23:58:47.509Z,101452.03
